sensor_id;sensor_type;location;lat;lon;timestamp;temperature;humidity
7666;DHT22;3875;46.562;4.898;2022-08-01T00:01:33;25.90;57.70
7666;DHT22;3875;46.562;4.898;2022-08-01T00:03:59;25.80;58.00
7666;DHT22;3875;46.562;4.898;2022-08-01T00:06:24;25.70;58.40
7666;DHT22;3875;46.562;4.898;2022-08-01T00:08:50;25.70;58.80
7666;DHT22;3875;46.562;4.898;2022-08-01T00:11:16;25.60;59.00
7666;DHT22;3875;46.562;4.898;2022-08-01T00:13:41;25.60;59.10
7666;DHT22;3875;46.562;4.898;2022-08-01T00:16:07;25.50;59.20
7666;DHT22;3875;46.562;4.898;2022-08-01T00:18:33;25.40;59.50
7666;DHT22;3875;46.562;4.898;2022-08-01T00:21:01;25.30;59.80
7666;DHT22;3875;46.562;4.898;2022-08-01T00:23:27;25.20;60.00
7666;DHT22;3875;46.562;4.898;2022-08-01T00:25:52;25.20;60.30
7666;DHT22;3875;46.562;4.898;2022-08-01T00:28:18;25.10;60.30
7666;DHT22;3875;46.562;4.898;2022-08-01T00:30:44;25.10;60.30
7666;DHT22;3875;46.562;4.898;2022-08-01T00:33:09;25.00;60.20
7666;DHT22;3875;46.562;4.898;2022-08-01T00:35:35;24.90;60.00
7666;DHT22;3875;46.562;4.898;2022-08-01T00:38:01;24.70;60.30
7666;DHT22;3875;46.562;4.898;2022-08-01T00:40:26;24.50;60.70
7666;DHT22;3875;46.562;4.898;2022-08-01T00:42:52;24.40;60.70
7666;DHT22;3875;46.562;4.898;2022-08-01T00:45:18;24.40;60.70
7666;DHT22;3875;46.562;4.898;2022-08-01T00:47:44;24.40;60.60
7666;DHT22;3875;46.562;4.898;2022-08-01T00:50:10;24.30;60.60
7666;DHT22;3875;46.562;4.898;2022-08-01T00:52:36;24.30;60.50
7666;DHT22;3875;46.562;4.898;2022-08-01T00:55:04;24.30;60.40
7666;DHT22;3875;46.562;4.898;2022-08-01T00:57:30;24.30;60.50
7666;DHT22;3875;46.562;4.898;2022-08-01T00:59:56;24.20;60.50
7666;DHT22;3875;46.562;4.898;2022-08-01T01:02:21;24.10;60.60
7666;DHT22;3875;46.562;4.898;2022-08-01T01:04:47;24.10;60.70
7666;DHT22;3875;46.562;4.898;2022-08-01T01:07:19;24.00;60.80
7666;DHT22;3875;46.562;4.898;2022-08-01T01:09:58;24.00;60.90
7666;DHT22;3875;46.562;4.898;2022-08-01T01:15:21;23.90;61.20
7666;DHT22;3875;46.562;4.898;2022-08-01T01:18:13;23.80;61.50
7666;DHT22;3875;46.562;4.898;2022-08-01T01:20:58;23.60;61.90
7666;DHT22;3875;46.562;4.898;2022-08-01T01:23:48;23.60;61.80
7666;DHT22;3875;46.562;4.898;2022-08-01T01:29:21;23.50;62.20
7666;DHT22;3875;46.562;4.898;2022-08-01T01:34:21;23.30;62.70
7666;DHT22;3875;46.562;4.898;2022-08-01T01:36:50;23.20;63.10
7666;DHT22;3875;46.562;4.898;2022-08-01T01:39:18;23.20;62.80
7666;DHT22;3875;46.562;4.898;2022-08-01T01:41:46;23.20;62.90
7666;DHT22;3875;46.562;4.898;2022-08-01T01:44:15;23.20;63.00
7666;DHT22;3875;46.562;4.898;2022-08-01T01:46:42;23.10;63.20
7666;DHT22;3875;46.562;4.898;2022-08-01T01:49:08;23.10;63.20
7666;DHT22;3875;46.562;4.898;2022-08-01T01:51:35;23.20;62.90
7666;DHT22;3875;46.562;4.898;2022-08-01T01:54:02;23.20;62.60
7666;DHT22;3875;46.562;4.898;2022-08-01T01:56:30;23.30;62.40
7666;DHT22;3875;46.562;4.898;2022-08-01T01:58:59;23.40;62.20
7666;DHT22;3875;46.562;4.898;2022-08-01T02:01:28;23.40;62.00
7666;DHT22;3875;46.562;4.898;2022-08-01T02:03:55;23.40;62.00
7666;DHT22;3875;46.562;4.898;2022-08-01T02:06:24;23.40;62.30
7666;DHT22;3875;46.562;4.898;2022-08-01T02:08:53;23.30;62.50
7666;DHT22;3875;46.562;4.898;2022-08-01T02:11:20;23.20;62.60
7666;DHT22;3875;46.562;4.898;2022-08-01T02:13:57;23.20;63.00
7666;DHT22;3875;46.562;4.898;2022-08-01T02:16:26;23.10;63.20
7666;DHT22;3875;46.562;4.898;2022-08-01T02:18:53;23.10;63.40
7666;DHT22;3875;46.562;4.898;2022-08-01T02:21:39;23.00;63.50
7666;DHT22;3875;46.562;4.898;2022-08-01T02:24:13;23.10;63.20
7666;DHT22;3875;46.562;4.898;2022-08-01T02:26:44;23.00;63.30
7666;DHT22;3875;46.562;4.898;2022-08-01T02:29:16;23.00;63.40
7666;DHT22;3875;46.562;4.898;2022-08-01T02:31:47;23.00;63.60
7666;DHT22;3875;46.562;4.898;2022-08-01T02:34:17;22.90;63.70
7666;DHT22;3875;46.562;4.898;2022-08-01T02:36:44;22.90;63.80
7666;DHT22;3875;46.562;4.898;2022-08-01T02:39:13;22.80;63.80
7666;DHT22;3875;46.562;4.898;2022-08-01T02:41:42;22.70;64.20
7666;DHT22;3875;46.562;4.898;2022-08-01T02:44:10;22.70;64.50
7666;DHT22;3875;46.562;4.898;2022-08-01T02:46:45;22.60;64.60
7666;DHT22;3875;46.562;4.898;2022-08-01T02:49:14;22.60;64.50
7666;DHT22;3875;46.562;4.898;2022-08-01T02:51:43;22.60;64.30
7666;DHT22;3875;46.562;4.898;2022-08-01T02:54:10;22.70;64.40
7666;DHT22;3875;46.562;4.898;2022-08-01T02:56:37;22.80;63.90
7666;DHT22;3875;46.562;4.898;2022-08-01T02:59:07;22.90;63.70
7666;DHT22;3875;46.562;4.898;2022-08-01T03:01:35;22.80;63.80
7666;DHT22;3875;46.562;4.898;2022-08-01T03:04:02;22.80;63.90
7666;DHT22;3875;46.562;4.898;2022-08-01T03:06:29;22.90;64.00
7666;DHT22;3875;46.562;4.898;2022-08-01T03:08:55;22.90;63.90
7666;DHT22;3875;46.562;4.898;2022-08-01T03:11:23;22.90;63.90
7666;DHT22;3875;46.562;4.898;2022-08-01T03:13:50;22.90;63.90
7666;DHT22;3875;46.562;4.898;2022-08-01T03:16:18;22.90;63.80
7666;DHT22;3875;46.562;4.898;2022-08-01T03:18:45;22.80;63.80
7666;DHT22;3875;46.562;4.898;2022-08-01T03:21:13;22.70;64.00
7666;DHT22;3875;46.562;4.898;2022-08-01T03:23:40;22.60;64.60
7666;DHT22;3875;46.562;4.898;2022-08-01T03:26:07;22.40;64.70
7666;DHT22;3875;46.562;4.898;2022-08-01T03:28:33;22.40;65.10
7666;DHT22;3875;46.562;4.898;2022-08-01T03:31:02;22.30;65.30
7666;DHT22;3875;46.562;4.898;2022-08-01T03:33:28;22.20;65.50
7666;DHT22;3875;46.562;4.898;2022-08-01T03:35:54;22.20;65.50
7666;DHT22;3875;46.562;4.898;2022-08-01T03:38:25;22.30;65.40
7666;DHT22;3875;46.562;4.898;2022-08-01T03:41:25;22.40;65.30
7666;DHT22;3875;46.562;4.898;2022-08-01T03:43:56;22.50;65.30
7666;DHT22;3875;46.562;4.898;2022-08-01T03:46:27;22.40;65.30
7666;DHT22;3875;46.562;4.898;2022-08-01T03:48:55;22.30;65.50
7666;DHT22;3875;46.562;4.898;2022-08-01T03:51:24;22.30;65.50
7666;DHT22;3875;46.562;4.898;2022-08-01T03:53:50;22.30;66.00
7666;DHT22;3875;46.562;4.898;2022-08-01T03:56:18;22.20;66.20
7666;DHT22;3875;46.562;4.898;2022-08-01T03:58:45;22.20;66.40
7666;DHT22;3875;46.562;4.898;2022-08-01T04:01:11;22.10;66.70
7666;DHT22;3875;46.562;4.898;2022-08-01T04:03:38;22.10;67.10
7666;DHT22;3875;46.562;4.898;2022-08-01T04:06:07;22.10;67.50
7666;DHT22;3875;46.562;4.898;2022-08-01T04:08:35;22.00;68.10
7666;DHT22;3875;46.562;4.898;2022-08-01T04:11:01;21.90;68.60
7666;DHT22;3875;46.562;4.898;2022-08-01T04:13:27;21.90;68.70
7666;DHT22;3875;46.562;4.898;2022-08-01T04:15:52;21.90;69.00
7666;DHT22;3875;46.562;4.898;2022-08-01T04:18:18;21.90;69.30
7666;DHT22;3875;46.562;4.898;2022-08-01T04:20:46;21.80;69.00
7666;DHT22;3875;46.562;4.898;2022-08-01T04:23:15;21.80;69.20
7666;DHT22;3875;46.562;4.898;2022-08-01T04:25:42;21.80;69.30
7666;DHT22;3875;46.562;4.898;2022-08-01T04:28:11;21.80;69.30
7666;DHT22;3875;46.562;4.898;2022-08-01T04:30:43;21.80;69.40
7666;DHT22;3875;46.562;4.898;2022-08-01T04:33:13;21.80;69.20
7666;DHT22;3875;46.562;4.898;2022-08-01T04:35:44;21.80;69.30
7666;DHT22;3875;46.562;4.898;2022-08-01T04:38:13;21.70;69.80
7666;DHT22;3875;46.562;4.898;2022-08-01T04:40:43;21.70;69.60
7666;DHT22;3875;46.562;4.898;2022-08-01T04:43:11;21.70;69.60
7666;DHT22;3875;46.562;4.898;2022-08-01T04:45:38;21.70;69.50
7666;DHT22;3875;46.562;4.898;2022-08-01T04:48:09;21.80;69.40
7666;DHT22;3875;46.562;4.898;2022-08-01T04:50:35;21.80;69.80
7666;DHT22;3875;46.562;4.898;2022-08-01T04:53:02;21.80;69.40
7666;DHT22;3875;46.562;4.898;2022-08-01T04:55:28;21.90;69.60
7666;DHT22;3875;46.562;4.898;2022-08-01T04:57:54;22.00;69.50
7666;DHT22;3875;46.562;4.898;2022-08-01T05:00:20;22.10;69.60
7666;DHT22;3875;46.562;4.898;2022-08-01T05:02:46;22.10;69.80
7666;DHT22;3875;46.562;4.898;2022-08-01T05:05:12;22.20;69.40
7666;DHT22;3875;46.562;4.898;2022-08-01T05:07:38;22.30;69.80
7666;DHT22;3875;46.562;4.898;2022-08-01T05:10:05;22.40;69.70
7666;DHT22;3875;46.562;4.898;2022-08-01T05:12:31;22.50;69.70
7666;DHT22;3875;46.562;4.898;2022-08-01T05:14:59;22.50;69.40
7666;DHT22;3875;46.562;4.898;2022-08-01T05:17:25;22.70;69.80
7666;DHT22;3875;46.562;4.898;2022-08-01T05:19:51;22.70;69.50
7666;DHT22;3875;46.562;4.898;2022-08-01T05:22:17;22.80;69.10
7666;DHT22;3875;46.562;4.898;2022-08-01T05:24:42;23.00;69.20
7666;DHT22;3875;46.562;4.898;2022-08-01T05:27:08;23.10;69.10
7666;DHT22;3875;46.562;4.898;2022-08-01T05:29:34;23.20;69.00
7666;DHT22;3875;46.562;4.898;2022-08-01T05:32:01;23.30;68.90
7666;DHT22;3875;46.562;4.898;2022-08-01T05:34:27;23.40;68.60
7666;DHT22;3875;46.562;4.898;2022-08-01T05:36:53;23.50;68.60
7666;DHT22;3875;46.562;4.898;2022-08-01T05:39:19;23.60;68.40
7666;DHT22;3875;46.562;4.898;2022-08-01T05:41:44;23.70;68.40
7666;DHT22;3875;46.562;4.898;2022-08-01T05:44:10;23.90;68.20
7666;DHT22;3875;46.562;4.898;2022-08-01T05:46:36;24.00;67.90
7666;DHT22;3875;46.562;4.898;2022-08-01T05:49:03;24.10;67.90
7666;DHT22;3875;46.562;4.898;2022-08-01T05:51:29;24.20;68.10
7666;DHT22;3875;46.562;4.898;2022-08-01T05:53:56;24.30;67.60
7666;DHT22;3875;46.562;4.898;2022-08-01T05:56:21;24.40;67.30
7666;DHT22;3875;46.562;4.898;2022-08-01T05:58:48;24.50;67.30
7666;DHT22;3875;46.562;4.898;2022-08-01T06:01:15;24.60;67.30
7666;DHT22;3875;46.562;4.898;2022-08-01T06:03:41;24.70;67.10
7666;DHT22;3875;46.562;4.898;2022-08-01T06:06:07;24.80;67.20
7666;DHT22;3875;46.562;4.898;2022-08-01T06:08:32;24.90;67.00
7666;DHT22;3875;46.562;4.898;2022-08-01T06:10:58;25.00;66.90
7666;DHT22;3875;46.562;4.898;2022-08-01T06:13:24;25.00;66.90
7666;DHT22;3875;46.562;4.898;2022-08-01T06:15:50;25.10;66.60
7666;DHT22;3875;46.562;4.898;2022-08-01T06:18:16;25.20;66.80
7666;DHT22;3875;46.562;4.898;2022-08-01T06:20:42;25.40;66.70
7666;DHT22;3875;46.562;4.898;2022-08-01T06:23:09;25.50;66.70
7666;DHT22;3875;46.562;4.898;2022-08-01T06:25:35;25.60;66.90
7666;DHT22;3875;46.562;4.898;2022-08-01T06:28:01;25.70;66.50
7666;DHT22;3875;46.562;4.898;2022-08-01T06:30:27;25.70;66.50
7666;DHT22;3875;46.562;4.898;2022-08-01T06:32:53;25.70;66.50
7666;DHT22;3875;46.562;4.898;2022-08-01T06:35:21;25.80;66.60
7666;DHT22;3875;46.562;4.898;2022-08-01T06:37:47;25.80;66.80
7666;DHT22;3875;46.562;4.898;2022-08-01T06:40:14;25.90;66.30
7666;DHT22;3875;46.562;4.898;2022-08-01T06:42:40;26.00;65.80
7666;DHT22;3875;46.562;4.898;2022-08-01T06:45:11;26.00;65.60
7666;DHT22;3875;46.562;4.898;2022-08-01T06:47:40;26.10;65.30
7666;DHT22;3875;46.562;4.898;2022-08-01T06:50:07;26.30;65.00
7666;DHT22;3875;46.562;4.898;2022-08-01T06:52:34;26.50;64.40
7666;DHT22;3875;46.562;4.898;2022-08-01T06:55:00;26.60;64.30
7666;DHT22;3875;46.562;4.898;2022-08-01T06:57:26;26.60;64.10
7666;DHT22;3875;46.562;4.898;2022-08-01T06:59:52;26.80;64.00
7666;DHT22;3875;46.562;4.898;2022-08-01T07:02:17;26.80;63.50
7666;DHT22;3875;46.562;4.898;2022-08-01T07:04:43;26.70;63.90
7666;DHT22;3875;46.562;4.898;2022-08-01T07:07:09;26.80;63.40
7666;DHT22;3875;46.562;4.898;2022-08-01T07:09:35;26.80;63.40
7666;DHT22;3875;46.562;4.898;2022-08-01T07:12:03;26.90;63.10
7666;DHT22;3875;46.562;4.898;2022-08-01T07:14:29;27.00;63.20
7666;DHT22;3875;46.562;4.898;2022-08-01T07:16:55;27.10;62.80
7666;DHT22;3875;46.562;4.898;2022-08-01T07:19:20;27.10;62.20
7666;DHT22;3875;46.562;4.898;2022-08-01T07:21:46;27.20;62.40
7666;DHT22;3875;46.562;4.898;2022-08-01T07:24:13;27.30;61.80
7666;DHT22;3875;46.562;4.898;2022-08-01T07:26:44;27.30;61.80
7666;DHT22;3875;46.562;4.898;2022-08-01T07:29:10;27.30;61.20
7666;DHT22;3875;46.562;4.898;2022-08-01T07:31:36;27.10;61.40
7666;DHT22;3875;46.562;4.898;2022-08-01T07:34:01;27.20;61.90
7666;DHT22;3875;46.562;4.898;2022-08-01T07:36:28;27.40;61.30
7666;DHT22;3875;46.562;4.898;2022-08-01T07:38:54;27.40;61.90
7666;DHT22;3875;46.562;4.898;2022-08-01T07:41:20;27.40;61.90
7666;DHT22;3875;46.562;4.898;2022-08-01T07:43:46;27.70;62.00
7666;DHT22;3875;46.562;4.898;2022-08-01T07:46:14;27.90;61.70
7666;DHT22;3875;46.562;4.898;2022-08-01T07:48:40;28.00;61.80
7666;DHT22;3875;46.562;4.898;2022-08-01T07:51:05;28.10;61.50
7666;DHT22;3875;46.562;4.898;2022-08-01T07:53:31;28.30;61.10
7666;DHT22;3875;46.562;4.898;2022-08-01T07:55:57;28.40;60.40
7666;DHT22;3875;46.562;4.898;2022-08-01T07:58:22;28.50;59.60
7666;DHT22;3875;46.562;4.898;2022-08-01T08:00:49;28.70;59.90
7666;DHT22;3875;46.562;4.898;2022-08-01T08:03:14;28.90;59.50
7666;DHT22;3875;46.562;4.898;2022-08-01T08:05:40;29.10;58.70
7666;DHT22;3875;46.562;4.898;2022-08-01T08:08:07;29.20;57.90
7666;DHT22;3875;46.562;4.898;2022-08-01T08:10:34;29.30;58.40
7666;DHT22;3875;46.562;4.898;2022-08-01T08:13:00;29.60;57.60
7666;DHT22;3875;46.562;4.898;2022-08-01T08:15:27;29.70;57.50
7666;DHT22;3875;46.562;4.898;2022-08-01T08:17:53;30.00;57.00
7666;DHT22;3875;46.562;4.898;2022-08-01T08:20:19;30.00;56.70
7666;DHT22;3875;46.562;4.898;2022-08-01T08:22:46;30.20;56.90
7666;DHT22;3875;46.562;4.898;2022-08-01T08:25:12;30.30;56.50
7666;DHT22;3875;46.562;4.898;2022-08-01T08:27:38;30.50;56.70
7666;DHT22;3875;46.562;4.898;2022-08-01T08:30:06;30.70;55.90
7666;DHT22;3875;46.562;4.898;2022-08-01T08:32:33;30.70;55.70
7666;DHT22;3875;46.562;4.898;2022-08-01T08:34:59;30.70;55.80
7666;DHT22;3875;46.562;4.898;2022-08-01T08:37:25;30.90;55.60
7666;DHT22;3875;46.562;4.898;2022-08-01T08:39:51;31.00;55.10
7666;DHT22;3875;46.562;4.898;2022-08-01T08:42:16;31.10;54.70
7666;DHT22;3875;46.562;4.898;2022-08-01T08:44:47;31.10;54.60
7666;DHT22;3875;46.562;4.898;2022-08-01T08:47:14;31.20;54.30
7666;DHT22;3875;46.562;4.898;2022-08-01T08:49:43;31.40;54.50
7666;DHT22;3875;46.562;4.898;2022-08-01T08:52:10;31.60;53.50
7666;DHT22;3875;46.562;4.898;2022-08-01T08:54:41;31.70;53.20
7666;DHT22;3875;46.562;4.898;2022-08-01T08:57:07;31.90;53.30
7666;DHT22;3875;46.562;4.898;2022-08-01T08:59:36;32.10;52.60
7666;DHT22;3875;46.562;4.898;2022-08-01T09:02:02;32.20;52.60
7666;DHT22;3875;46.562;4.898;2022-08-01T09:04:30;32.40;52.60
7666;DHT22;3875;46.562;4.898;2022-08-01T09:06:56;32.60;52.40
7666;DHT22;3875;46.562;4.898;2022-08-01T09:09:22;32.90;51.90
7666;DHT22;3875;46.562;4.898;2022-08-01T09:11:49;33.10;51.20
7666;DHT22;3875;46.562;4.898;2022-08-01T09:14:17;33.30;50.70
7666;DHT22;3875;46.562;4.898;2022-08-01T09:16:59;33.50;50.60
7666;DHT22;3875;46.562;4.898;2022-08-01T09:22:04;34.20;49.30
7666;DHT22;3875;46.562;4.898;2022-08-01T09:24:31;34.30;48.80
7666;DHT22;3875;46.562;4.898;2022-08-01T09:26:58;34.30;48.40
7666;DHT22;3875;46.562;4.898;2022-08-01T09:29:27;34.40;48.30
7666;DHT22;3875;46.562;4.898;2022-08-01T09:31:53;34.40;48.30
7666;DHT22;3875;46.562;4.898;2022-08-01T09:34:27;34.60;47.80
7666;DHT22;3875;46.562;4.898;2022-08-01T09:36:58;34.80;47.80
7666;DHT22;3875;46.562;4.898;2022-08-01T09:39:27;35.00;47.70
7666;DHT22;3875;46.562;4.898;2022-08-01T09:41:55;35.20;47.50
7666;DHT22;3875;46.562;4.898;2022-08-01T09:47:02;35.40;46.50
7666;DHT22;3875;46.562;4.898;2022-08-01T09:49:33;35.30;46.70
7666;DHT22;3875;46.562;4.898;2022-08-01T09:54:38;35.80;46.30
7666;DHT22;3875;46.562;4.898;2022-08-01T09:57:13;36.00;46.20
7666;DHT22;3875;46.562;4.898;2022-08-01T09:59:41;36.30;45.40
7666;DHT22;3875;46.562;4.898;2022-08-01T10:02:12;36.40;45.10
7666;DHT22;3875;46.562;4.898;2022-08-01T10:04:48;36.40;45.20
7666;DHT22;3875;46.562;4.898;2022-08-01T10:07:14;36.40;45.00
7666;DHT22;3875;46.562;4.898;2022-08-01T10:09:41;36.40;45.30
7666;DHT22;3875;46.562;4.898;2022-08-01T10:12:08;36.50;45.50
7666;DHT22;3875;46.562;4.898;2022-08-01T10:14:36;36.50;44.60
7666;DHT22;3875;46.562;4.898;2022-08-01T10:17:02;36.60;45.00
7666;DHT22;3875;46.562;4.898;2022-08-01T10:19:30;36.80;44.70
7666;DHT22;3875;46.562;4.898;2022-08-01T10:21:57;36.60;44.00
7666;DHT22;3875;46.562;4.898;2022-08-01T10:24:26;36.40;44.10
7666;DHT22;3875;46.562;4.898;2022-08-01T10:27:01;36.50;43.60
7666;DHT22;3875;46.562;4.898;2022-08-01T10:29:34;36.70;43.00
7666;DHT22;3875;46.562;4.898;2022-08-01T10:32:01;36.80;43.60
7666;DHT22;3875;46.562;4.898;2022-08-01T10:34:27;37.10;43.70
7666;DHT22;3875;46.562;4.898;2022-08-01T10:36:54;37.30;42.80
7666;DHT22;3875;46.562;4.898;2022-08-01T10:39:20;37.40;43.30
7666;DHT22;3875;46.562;4.898;2022-08-01T10:41:46;37.80;42.50
7666;DHT22;3875;46.562;4.898;2022-08-01T10:44:13;38.10;42.70
7666;DHT22;3875;46.562;4.898;2022-08-01T10:46:42;38.40;42.50
7666;DHT22;3875;46.562;4.898;2022-08-01T10:49:17;38.40;42.10
7666;DHT22;3875;46.562;4.898;2022-08-01T10:51:46;38.50;41.90
7666;DHT22;3875;46.562;4.898;2022-08-01T10:54:12;38.70;41.90
7666;DHT22;3875;46.562;4.898;2022-08-01T10:56:40;38.90;40.60
7666;DHT22;3875;46.562;4.898;2022-08-01T10:59:08;38.90;40.50
7666;DHT22;3875;46.562;4.898;2022-08-01T11:01:33;38.90;40.60
7666;DHT22;3875;46.562;4.898;2022-08-01T11:09:16;39.10;40.50
7666;DHT22;3875;46.562;4.898;2022-08-01T11:11:59;39.00;40.60
7666;DHT22;3875;46.562;4.898;2022-08-01T11:14:27;38.70;40.50
7666;DHT22;3875;46.562;4.898;2022-08-01T11:16:53;38.80;40.40
7666;DHT22;3875;46.562;4.898;2022-08-01T11:19:19;39.00;40.60
7666;DHT22;3875;46.562;4.898;2022-08-01T11:32:49;38.50;40.00
7666;DHT22;3875;46.562;4.898;2022-08-01T11:35:15;38.10;39.60
7666;DHT22;3875;46.562;4.898;2022-08-01T11:37:41;37.00;41.10
7666;DHT22;3875;46.562;4.898;2022-08-01T11:42:42;36.70;41.70
7666;DHT22;3875;46.562;4.898;2022-08-01T11:45:07;37.00;40.70
7666;DHT22;3875;46.562;4.898;2022-08-01T11:47:50;37.50;41.10
7666;DHT22;3875;46.562;4.898;2022-08-01T11:50:35;38.30;40.10
7666;DHT22;3875;46.562;4.898;2022-08-01T11:53:05;38.70;39.30
7666;DHT22;3875;46.562;4.898;2022-08-01T11:55:32;39.10;39.50
7666;DHT22;3875;46.562;4.898;2022-08-01T11:58:05;39.00;38.60
7666;DHT22;3875;46.562;4.898;2022-08-01T12:00:32;38.80;38.50
7666;DHT22;3875;46.562;4.898;2022-08-01T12:03:04;39.00;38.60
7666;DHT22;3875;46.562;4.898;2022-08-01T12:05:31;39.30;38.70
7666;DHT22;3875;46.562;4.898;2022-08-01T12:07:59;39.30;37.80
7666;DHT22;3875;46.562;4.898;2022-08-01T12:10:32;39.40;38.40
7666;DHT22;3875;46.562;4.898;2022-08-01T12:13:04;39.80;38.40
7666;DHT22;3875;46.562;4.898;2022-08-01T12:15:35;40.10;37.60
7666;DHT22;3875;46.562;4.898;2022-08-01T12:18:05;40.10;37.90
7666;DHT22;3875;46.562;4.898;2022-08-01T12:20:39;40.00;37.20
7666;DHT22;3875;46.562;4.898;2022-08-01T12:23:10;39.60;37.40
7666;DHT22;3875;46.562;4.898;2022-08-01T12:25:36;39.50;37.60
7666;DHT22;3875;46.562;4.898;2022-08-01T12:28:06;39.70;37.90
7666;DHT22;3875;46.562;4.898;2022-08-01T12:30:33;39.70;37.40
7666;DHT22;3875;46.562;4.898;2022-08-01T12:33:05;39.60;36.90
7666;DHT22;3875;46.562;4.898;2022-08-01T12:35:31;39.40;37.30
7666;DHT22;3875;46.562;4.898;2022-08-01T12:38:05;39.30;36.80
7666;DHT22;3875;46.562;4.898;2022-08-01T12:40:37;39.40;37.80
7666;DHT22;3875;46.562;4.898;2022-08-01T12:43:07;39.80;37.90
7666;DHT22;3875;46.562;4.898;2022-08-01T12:45:41;40.10;37.70
7666;DHT22;3875;46.562;4.898;2022-08-01T12:48:11;40.50;36.90
7666;DHT22;3875;46.562;4.898;2022-08-01T12:50:39;40.30;36.90
7666;DHT22;3875;46.562;4.898;2022-08-01T12:53:06;39.80;37.10
7666;DHT22;3875;46.562;4.898;2022-08-01T12:55:33;39.80;37.30
7666;DHT22;3875;46.562;4.898;2022-08-01T12:58:07;39.80;38.40
7666;DHT22;3875;46.562;4.898;2022-08-01T13:00:34;39.70;38.20
7666;DHT22;3875;46.562;4.898;2022-08-01T13:03:17;39.00;38.50
7666;DHT22;3875;46.562;4.898;2022-08-01T13:08:16;38.00;39.40
7666;DHT22;3875;46.562;4.898;2022-08-01T13:10:43;37.80;39.50
7666;DHT22;3875;46.562;4.898;2022-08-01T13:13:09;37.70;39.80
7666;DHT22;3875;46.562;4.898;2022-08-01T13:15:38;37.80;39.30
7666;DHT22;3875;46.562;4.898;2022-08-01T13:18:27;38.00;40.00
7666;DHT22;3875;46.562;4.898;2022-08-01T13:21:14;38.10;39.10
7666;DHT22;3875;46.562;4.898;2022-08-01T13:23:42;37.90;39.70
7666;DHT22;3875;46.562;4.898;2022-08-01T13:26:08;37.60;39.40
7666;DHT22;3875;46.562;4.898;2022-08-01T13:28:34;37.40;40.10
7666;DHT22;3875;46.562;4.898;2022-08-01T13:31:07;37.90;39.40
7666;DHT22;3875;46.562;4.898;2022-08-01T13:33:47;38.10;38.80
7666;DHT22;3875;46.562;4.898;2022-08-01T13:36:13;38.30;38.20
7666;DHT22;3875;46.562;4.898;2022-08-01T13:38:40;38.30;38.80
7666;DHT22;3875;46.562;4.898;2022-08-01T13:41:25;38.40;38.20
7666;DHT22;3875;46.562;4.898;2022-08-01T13:43:51;38.30;38.00
7666;DHT22;3875;46.562;4.898;2022-08-01T13:46:17;38.20;37.80
7666;DHT22;3875;46.562;4.898;2022-08-01T13:48:43;38.00;38.40
7666;DHT22;3875;46.562;4.898;2022-08-01T13:51:09;38.00;38.40
7666;DHT22;3875;46.562;4.898;2022-08-01T13:53:35;38.00;38.20
7666;DHT22;3875;46.562;4.898;2022-08-01T13:56:01;38.10;37.40
7666;DHT22;3875;46.562;4.898;2022-08-01T13:58:27;38.00;36.80
7666;DHT22;3875;46.562;4.898;2022-08-01T14:00:54;38.00;36.70
7666;DHT22;3875;46.562;4.898;2022-08-01T14:03:21;38.20;36.30
7666;DHT22;3875;46.562;4.898;2022-08-01T14:05:47;38.40;36.40
7666;DHT22;3875;46.562;4.898;2022-08-01T14:08:12;38.70;36.70
7666;DHT22;3875;46.562;4.898;2022-08-01T14:10:38;38.30;37.40
7666;DHT22;3875;46.562;4.898;2022-08-01T14:13:04;37.40;38.20
7666;DHT22;3875;46.562;4.898;2022-08-01T14:15:31;36.90;38.70
7666;DHT22;3875;46.562;4.898;2022-08-01T14:17:57;36.90;39.20
7666;DHT22;3875;46.562;4.898;2022-08-01T14:20:23;37.40;39.40
7666;DHT22;3875;46.562;4.898;2022-08-01T14:22:49;37.60;39.00
7666;DHT22;3875;46.562;4.898;2022-08-01T14:25:15;38.20;38.80
7666;DHT22;3875;46.562;4.898;2022-08-01T14:27:43;38.10;37.50
7666;DHT22;3875;46.562;4.898;2022-08-01T14:30:10;37.80;37.90
7666;DHT22;3875;46.562;4.898;2022-08-01T14:32:36;37.50;38.30
7666;DHT22;3875;46.562;4.898;2022-08-01T14:35:04;37.50;37.70
7666;DHT22;3875;46.562;4.898;2022-08-01T14:37:30;37.30;38.30
7666;DHT22;3875;46.562;4.898;2022-08-01T14:39:56;37.60;38.00
7666;DHT22;3875;46.562;4.898;2022-08-01T14:42:22;37.80;38.00
7666;DHT22;3875;46.562;4.898;2022-08-01T14:44:48;37.70;38.10
7666;DHT22;3875;46.562;4.898;2022-08-01T14:47:14;37.70;38.30
7666;DHT22;3875;46.562;4.898;2022-08-01T14:49:39;37.60;38.30
7666;DHT22;3875;46.562;4.898;2022-08-01T14:52:05;37.60;38.30
7666;DHT22;3875;46.562;4.898;2022-08-01T14:54:31;37.60;38.10
7666;DHT22;3875;46.562;4.898;2022-08-01T14:56:57;37.50;38.00
7666;DHT22;3875;46.562;4.898;2022-08-01T14:59:22;37.30;38.50
7666;DHT22;3875;46.562;4.898;2022-08-01T15:01:48;36.90;38.30
7666;DHT22;3875;46.562;4.898;2022-08-01T15:04:14;36.40;38.50
7666;DHT22;3875;46.562;4.898;2022-08-01T15:06:40;36.20;39.00
7666;DHT22;3875;46.562;4.898;2022-08-01T15:09:06;36.20;39.30
7666;DHT22;3875;46.562;4.898;2022-08-01T15:11:31;36.30;39.70
7666;DHT22;3875;46.562;4.898;2022-08-01T15:13:57;36.30;39.50
7666;DHT22;3875;46.562;4.898;2022-08-01T15:16:41;36.10;39.30
7666;DHT22;3875;46.562;4.898;2022-08-01T15:19:08;35.90;40.10
7666;DHT22;3875;46.562;4.898;2022-08-01T15:21:33;35.80;40.80
7666;DHT22;3875;46.562;4.898;2022-08-01T15:23:59;35.70;41.30
7666;DHT22;3875;46.562;4.898;2022-08-01T15:26:25;35.70;41.20
7666;DHT22;3875;46.562;4.898;2022-08-01T15:28:50;35.70;41.00
7666;DHT22;3875;46.562;4.898;2022-08-01T15:31:17;35.80;41.20
7666;DHT22;3875;46.562;4.898;2022-08-01T15:33:42;35.80;41.10
7666;DHT22;3875;46.562;4.898;2022-08-01T15:36:08;35.90;41.20
7666;DHT22;3875;46.562;4.898;2022-08-01T15:38:34;35.90;41.40
7666;DHT22;3875;46.562;4.898;2022-08-01T15:41:00;35.80;41.00
7666;DHT22;3875;46.562;4.898;2022-08-01T15:43:25;35.50;41.40
7666;DHT22;3875;46.562;4.898;2022-08-01T15:45:51;35.20;42.10
7666;DHT22;3875;46.562;4.898;2022-08-01T15:48:17;35.10;42.20
7666;DHT22;3875;46.562;4.898;2022-08-01T15:50:43;35.10;42.30
7666;DHT22;3875;46.562;4.898;2022-08-01T15:53:08;34.90;42.50
7666;DHT22;3875;46.562;4.898;2022-08-01T15:55:38;34.80;42.70
7666;DHT22;3875;46.562;4.898;2022-08-01T15:58:05;34.60;43.10
7666;DHT22;3875;46.562;4.898;2022-08-01T16:00:31;34.50;43.20
7666;DHT22;3875;46.562;4.898;2022-08-01T16:02:57;34.40;43.50
7666;DHT22;3875;46.562;4.898;2022-08-01T16:05:23;34.30;43.40
7666;DHT22;3875;46.562;4.898;2022-08-01T16:07:49;34.10;43.60
7666;DHT22;3875;46.562;4.898;2022-08-01T16:10:14;33.80;43.70
7666;DHT22;3875;46.562;4.898;2022-08-01T16:12:40;33.70;43.90
7666;DHT22;3875;46.562;4.898;2022-08-01T16:15:06;33.80;44.00
7666;DHT22;3875;46.562;4.898;2022-08-01T16:17:32;33.90;44.10
7666;DHT22;3875;46.562;4.898;2022-08-01T16:19:58;33.90;44.10
7666;DHT22;3875;46.562;4.898;2022-08-01T16:22:24;33.90;44.00
7666;DHT22;3875;46.562;4.898;2022-08-01T16:24:50;33.70;44.00
7666;DHT22;3875;46.562;4.898;2022-08-01T16:27:16;33.70;44.30
7666;DHT22;3875;46.562;4.898;2022-08-01T16:29:42;33.60;44.40
7666;DHT22;3875;46.562;4.898;2022-08-01T16:32:08;33.60;44.40
7666;DHT22;3875;46.562;4.898;2022-08-01T16:34:34;33.60;44.60
7666;DHT22;3875;46.562;4.898;2022-08-01T16:37:00;33.60;44.70
7666;DHT22;3875;46.562;4.898;2022-08-01T16:39:26;33.50;44.80
7666;DHT22;3875;46.562;4.898;2022-08-01T16:41:52;33.50;44.70
7666;DHT22;3875;46.562;4.898;2022-08-01T16:44:18;33.50;44.80